LYBE/BEG METAR and TAF weather

Enter ICAO airport designator
Station Type Date Time Source
LYBE METAR 2020/02/26 10:30 UTC NOAA

LYBE 261030Z 19013KT CAVOK 19/02 Q0998 NOSIG


Station Type Date Time Source
LYBE Decoded METAR 2020/02/26 10:30 UTC NOAA

Beograd / Surcin, Serbia and Montenegro (LYBE) 44-49N 020-17E 99M
Feb 26, 2020 - 05:30 AM EST / 2020.02.26 1030 UTC
Wind: from the S (190 degrees) at 15 MPH (13 KT):0
Visibility: greater than 7 mile(s):0
Temperature: 66 F (19 C)
Dew Point: 35 F (2 C)
Relative Humidity: 32%
Pressure (altimeter): 29.47 in. Hg (0998 hPa)
ob: LYBE 261030Z 19013KT CAVOK 19/02 Q0998 NOSIG
cycle: 10

Station Type Date Time Source
LYBE TAF 2020/02/26 06:24 UTC NOAA

TAF COR TAF COR LYBE 260522Z 2606/2706 20007KT CAVOK TX15/2613Z TN01/2706Z
BECMG 2609/2611 23015KT
BECMG 2613/2615 32015KT
TEMPO 2615/2617 32015G25KT 5000 SHRA SCT025TCU BKN030
BECMG 2617/2619 5000 -RASN BKN010 BKN030

Example: see airport list